sensor_id;sensor_type;location;lat;lon;timestamp;P1;durP1;ratioP1;P2;durP2;ratioP2
68763;SDS011;55754;52.038;5.566;2022-10-22T00:01:36;8.30;;;3.90;;
68763;SDS011;55754;52.038;5.566;2022-10-22T00:04:02;9.23;;;4.35;;
68763;SDS011;55754;52.038;5.566;2022-10-22T00:06:28;11.20;;;3.97;;
68763;SDS011;55754;52.038;5.566;2022-10-22T00:08:54;8.68;;;3.60;;
68763;SDS011;55754;52.038;5.566;2022-10-22T00:11:20;8.00;;;3.90;;
68763;SDS011;55754;52.038;5.566;2022-10-22T00:13:46;10.20;;;3.78;;
68763;SDS011;55754;52.038;5.566;2022-10-22T00:16:12;12.13;;;3.77;;
68763;SDS011;55754;52.038;5.566;2022-10-22T00:18:38;10.98;;;4.03;;
68763;SDS011;55754;52.038;5.566;2022-10-22T00:21:04;10.10;;;3.80;;
68763;SDS011;55754;52.038;5.566;2022-10-22T00:23:31;11.73;;;3.97;;
68763;SDS011;55754;52.038;5.566;2022-10-22T00:25:56;12.17;;;4.10;;
68763;SDS011;55754;52.038;5.566;2022-10-22T00:28:22;11.87;;;4.10;;
68763;SDS011;55754;52.038;5.566;2022-10-22T00:30:53;10.05;;;3.85;;
68763;SDS011;55754;52.038;5.566;2022-10-22T00:33:20;9.15;;;3.72;;
68763;SDS011;55754;52.038;5.566;2022-10-22T00:35:46;10.27;;;3.90;;
68763;SDS011;55754;52.038;5.566;2022-10-22T00:38:11;9.00;;;3.50;;
68763;SDS011;55754;52.038;5.566;2022-10-22T00:40:37;11.50;;;3.93;;
68763;SDS011;55754;52.038;5.566;2022-10-22T00:43:02;9.50;;;3.70;;
68763;SDS011;55754;52.038;5.566;2022-10-22T00:45:28;7.72;;;3.60;;
68763;SDS011;55754;52.038;5.566;2022-10-22T00:48:01;14.25;;;3.60;;
68763;SDS011;55754;52.038;5.566;2022-10-22T00:53:06;7.55;;;3.70;;
68763;SDS011;55754;52.038;5.566;2022-10-22T00:55:36;10.13;;;3.70;;
68763;SDS011;55754;52.038;5.566;2022-10-22T00:58:03;11.35;;;3.80;;
68763;SDS011;55754;52.038;5.566;2022-10-22T01:00:29;10.43;;;3.67;;
68763;SDS011;55754;52.038;5.566;2022-10-22T01:02:55;10.57;;;4.28;;
68763;SDS011;55754;52.038;5.566;2022-10-22T01:05:22;9.02;;;3.70;;
68763;SDS011;55754;52.038;5.566;2022-10-22T01:07:51;8.48;;;3.78;;
68763;SDS011;55754;52.038;5.566;2022-10-22T01:16:29;12.00;;;4.30;;
68763;SDS011;55754;52.038;5.566;2022-10-22T01:19:13;11.45;;;3.75;;
68763;SDS011;55754;52.038;5.566;2022-10-22T01:22:10;9.35;;;3.88;;
68763;SDS011;55754;52.038;5.566;2022-10-22T01:27:47;17.60;;;3.80;;
68763;SDS011;55754;52.038;5.566;2022-10-22T01:30:20;9.35;;;3.72;;
68763;SDS011;55754;52.038;5.566;2022-10-22T01:32:48;12.23;;;3.38;;
68763;SDS011;55754;52.038;5.566;2022-10-22T01:35:26;12.98;;;3.80;;
68763;SDS011;55754;52.038;5.566;2022-10-22T01:38:00;10.20;;;3.70;;
68763;SDS011;55754;52.038;5.566;2022-10-22T01:40:28;9.57;;;3.75;;
68763;SDS011;55754;52.038;5.566;2022-10-22T01:42:56;9.25;;;3.70;;
68763;SDS011;55754;52.038;5.566;2022-10-22T01:45:23;7.78;;;3.65;;
68763;SDS011;55754;52.038;5.566;2022-10-22T01:47:55;7.80;;;3.37;;
68763;SDS011;55754;52.038;5.566;2022-10-22T01:53:06;8.45;;;3.65;;
68763;SDS011;55754;52.038;5.566;2022-10-22T01:55:42;10.50;;;3.90;;
68763;SDS011;55754;52.038;5.566;2022-10-22T02:00:58;10.87;;;3.80;;
68763;SDS011;55754;52.038;5.566;2022-10-22T02:04:12;12.90;;;3.83;;
68763;SDS011;55754;52.038;5.566;2022-10-22T02:06:37;8.30;;;3.85;;
68763;SDS011;55754;52.038;5.566;2022-10-22T02:09:04;9.40;;;4.07;;
68763;SDS011;55754;52.038;5.566;2022-10-22T02:11:33;8.35;;;3.95;;
68763;SDS011;55754;52.038;5.566;2022-10-22T02:14:00;10.97;;;4.27;;
68763;SDS011;55754;52.038;5.566;2022-10-22T02:16:42;12.60;;;3.88;;
68763;SDS011;55754;52.038;5.566;2022-10-22T02:19:13;12.63;;;3.90;;
68763;SDS011;55754;52.038;5.566;2022-10-22T02:21:48;11.82;;;3.85;;
68763;SDS011;55754;52.038;5.566;2022-10-22T02:24:18;10.00;;;4.43;;
68763;SDS011;55754;52.038;5.566;2022-10-22T02:29:20;9.10;;;3.95;;
68763;SDS011;55754;52.038;5.566;2022-10-22T02:31:57;11.18;;;4.35;;
68763;SDS011;55754;52.038;5.566;2022-10-22T02:34:24;14.05;;;4.43;;
68763;SDS011;55754;52.038;5.566;2022-10-22T02:36:54;12.18;;;5.28;;
68763;SDS011;55754;52.038;5.566;2022-10-22T02:39:20;14.70;;;4.80;;
68763;SDS011;55754;52.038;5.566;2022-10-22T02:41:46;9.65;;;4.32;;
68763;SDS011;55754;52.038;5.566;2022-10-22T02:44:12;10.65;;;4.85;;
68763;SDS011;55754;52.038;5.566;2022-10-22T02:46:38;10.73;;;4.80;;
68763;SDS011;55754;52.038;5.566;2022-10-22T02:49:04;11.30;;;4.78;;
68763;SDS011;55754;52.038;5.566;2022-10-22T02:51:30;10.23;;;4.63;;
68763;SDS011;55754;52.038;5.566;2022-10-22T02:53:55;10.52;;;4.68;;
68763;SDS011;55754;52.038;5.566;2022-10-22T02:56:21;11.57;;;5.30;;
68763;SDS011;55754;52.038;5.566;2022-10-22T02:58:47;14.90;;;5.30;;
68763;SDS011;55754;52.038;5.566;2022-10-22T03:01:12;14.13;;;5.10;;
68763;SDS011;55754;52.038;5.566;2022-10-22T03:03:38;9.85;;;5.45;;
68763;SDS011;55754;52.038;5.566;2022-10-22T03:06:03;13.60;;;5.40;;
68763;SDS011;55754;52.038;5.566;2022-10-22T03:08:29;13.53;;;5.47;;
68763;SDS011;55754;52.038;5.566;2022-10-22T03:10:54;10.18;;;5.25;;
68763;SDS011;55754;52.038;5.566;2022-10-22T03:13:20;11.73;;;5.20;;
68763;SDS011;55754;52.038;5.566;2022-10-22T03:15:49;11.07;;;5.40;;
68763;SDS011;55754;52.038;5.566;2022-10-22T03:18:18;10.52;;;5.35;;
68763;SDS011;55754;52.038;5.566;2022-10-22T03:20:43;13.95;;;5.50;;
68763;SDS011;55754;52.038;5.566;2022-10-22T03:23:10;13.77;;;5.20;;
68763;SDS011;55754;52.038;5.566;2022-10-22T03:25:38;9.75;;;5.20;;
68763;SDS011;55754;52.038;5.566;2022-10-22T03:28:06;12.23;;;4.88;;
68763;SDS011;55754;52.038;5.566;2022-10-22T03:30:33;11.63;;;5.28;;
68763;SDS011;55754;52.038;5.566;2022-10-22T03:32:58;14.17;;;5.20;;
68763;SDS011;55754;52.038;5.566;2022-10-22T03:35:27;10.45;;;4.90;;
68763;SDS011;55754;52.038;5.566;2022-10-22T03:37:55;10.97;;;5.07;;
68763;SDS011;55754;52.038;5.566;2022-10-22T03:40:24;12.48;;;5.25;;
68763;SDS011;55754;52.038;5.566;2022-10-22T03:42:50;13.57;;;5.50;;
68763;SDS011;55754;52.038;5.566;2022-10-22T03:45:16;13.10;;;5.03;;
68763;SDS011;55754;52.038;5.566;2022-10-22T03:47:42;16.13;;;6.00;;
68763;SDS011;55754;52.038;5.566;2022-10-22T03:50:07;13.10;;;5.27;;
68763;SDS011;55754;52.038;5.566;2022-10-22T03:52:34;16.08;;;5.47;;
68763;SDS011;55754;52.038;5.566;2022-10-22T03:55:03;13.85;;;5.78;;
68763;SDS011;55754;52.038;5.566;2022-10-22T03:57:30;11.40;;;4.90;;
68763;SDS011;55754;52.038;5.566;2022-10-22T03:59:56;13.57;;;5.13;;
68763;SDS011;55754;52.038;5.566;2022-10-22T04:02:21;11.60;;;5.50;;
68763;SDS011;55754;52.038;5.566;2022-10-22T04:04:47;10.10;;;5.00;;
68763;SDS011;55754;52.038;5.566;2022-10-22T04:07:12;11.53;;;5.07;;
68763;SDS011;55754;52.038;5.566;2022-10-22T04:09:38;13.77;;;5.27;;
68763;SDS011;55754;52.038;5.566;2022-10-22T04:12:03;11.00;;;5.15;;
68763;SDS011;55754;52.038;5.566;2022-10-22T04:14:33;15.37;;;5.27;;
68763;SDS011;55754;52.038;5.566;2022-10-22T04:16:59;13.80;;;5.07;;
68763;SDS011;55754;52.038;5.566;2022-10-22T04:19:25;8.98;;;4.78;;
68763;SDS011;55754;52.038;5.566;2022-10-22T04:21:50;12.97;;;5.07;;
68763;SDS011;55754;52.038;5.566;2022-10-22T04:24:16;11.67;;;4.83;;
68763;SDS011;55754;52.038;5.566;2022-10-22T04:26:43;12.95;;;4.85;;
68763;SDS011;55754;52.038;5.566;2022-10-22T04:29:09;14.77;;;4.97;;
68763;SDS011;55754;52.038;5.566;2022-10-22T04:31:35;13.00;;;4.50;;
68763;SDS011;55754;52.038;5.566;2022-10-22T04:34:03;10.57;;;4.33;;
68763;SDS011;55754;52.038;5.566;2022-10-22T04:36:29;10.18;;;4.70;;
68763;SDS011;55754;52.038;5.566;2022-10-22T04:38:58;11.43;;;4.33;;
68763;SDS011;55754;52.038;5.566;2022-10-22T04:41:26;10.17;;;4.37;;
68763;SDS011;55754;52.038;5.566;2022-10-22T04:44:02;10.35;;;4.22;;
68763;SDS011;55754;52.038;5.566;2022-10-22T04:46:29;14.93;;;4.30;;
68763;SDS011;55754;52.038;5.566;2022-10-22T04:48:56;12.93;;;4.53;;
68763;SDS011;55754;52.038;5.566;2022-10-22T04:51:22;16.80;;;4.30;;
68763;SDS011;55754;52.038;5.566;2022-10-22T04:53:49;10.68;;;4.07;;
68763;SDS011;55754;52.038;5.566;2022-10-22T04:56:21;17.35;;;4.47;;
68763;SDS011;55754;52.038;5.566;2022-10-22T04:58:50;14.33;;;4.13;;
68763;SDS011;55754;52.038;5.566;2022-10-22T05:01:23;15.65;;;4.05;;
68763;SDS011;55754;52.038;5.566;2022-10-22T05:03:51;12.85;;;3.80;;
68763;SDS011;55754;52.038;5.566;2022-10-22T05:06:19;12.20;;;3.80;;
68763;SDS011;55754;52.038;5.566;2022-10-22T05:08:45;15.88;;;4.43;;
68763;SDS011;55754;52.038;5.566;2022-10-22T05:11:18;13.57;;;3.63;;
68763;SDS011;55754;52.038;5.566;2022-10-22T05:13:45;13.27;;;3.92;;
68763;SDS011;55754;52.038;5.566;2022-10-22T05:16:11;9.38;;;3.83;;
68763;SDS011;55754;52.038;5.566;2022-10-22T05:18:38;12.10;;;4.00;;
68763;SDS011;55754;52.038;5.566;2022-10-22T05:21:09;15.15;;;4.15;;
68763;SDS011;55754;52.038;5.566;2022-10-22T05:23:36;11.50;;;4.17;;
68763;SDS011;55754;52.038;5.566;2022-10-22T05:26:05;15.18;;;4.13;;
68763;SDS011;55754;52.038;5.566;2022-10-22T05:28:32;14.48;;;3.95;;
68763;SDS011;55754;52.038;5.566;2022-10-22T05:30:59;12.40;;;4.00;;
68763;SDS011;55754;52.038;5.566;2022-10-22T05:33:25;11.63;;;4.28;;
68763;SDS011;55754;52.038;5.566;2022-10-22T05:35:52;13.03;;;3.97;;
68763;SDS011;55754;52.038;5.566;2022-10-22T05:38:18;11.20;;;3.70;;
68763;SDS011;55754;52.038;5.566;2022-10-22T05:40:44;10.95;;;3.85;;
68763;SDS011;55754;52.038;5.566;2022-10-22T05:43:10;10.83;;;3.80;;
68763;SDS011;55754;52.038;5.566;2022-10-22T05:45:39;11.13;;;4.10;;
68763;SDS011;55754;52.038;5.566;2022-10-22T05:48:06;13.57;;;4.30;;
68763;SDS011;55754;52.038;5.566;2022-10-22T05:50:36;12.93;;;4.30;;
68763;SDS011;55754;52.038;5.566;2022-10-22T05:53:03;12.05;;;4.40;;
68763;SDS011;55754;52.038;5.566;2022-10-22T05:55:38;13.60;;;4.43;;
68763;SDS011;55754;52.038;5.566;2022-10-22T05:58:04;13.60;;;4.38;;
68763;SDS011;55754;52.038;5.566;2022-10-22T06:00:30;13.85;;;4.60;;
68763;SDS011;55754;52.038;5.566;2022-10-22T06:02:58;12.00;;;4.40;;
68763;SDS011;55754;52.038;5.566;2022-10-22T06:05:24;11.93;;;4.50;;
68763;SDS011;55754;52.038;5.566;2022-10-22T06:07:49;12.05;;;4.07;;
68763;SDS011;55754;52.038;5.566;2022-10-22T06:10:16;14.23;;;4.93;;
68763;SDS011;55754;52.038;5.566;2022-10-22T06:12:45;12.57;;;3.92;;
68763;SDS011;55754;52.038;5.566;2022-10-22T06:15:12;13.02;;;4.47;;
68763;SDS011;55754;52.038;5.566;2022-10-22T06:17:45;10.60;;;4.47;;
68763;SDS011;55754;52.038;5.566;2022-10-22T06:20:11;12.32;;;4.43;;
68763;SDS011;55754;52.038;5.566;2022-10-22T06:22:40;12.55;;;3.97;;
68763;SDS011;55754;52.038;5.566;2022-10-22T06:25:06;11.30;;;4.20;;
68763;SDS011;55754;52.038;5.566;2022-10-22T06:27:34;13.27;;;4.32;;
68763;SDS011;55754;52.038;5.566;2022-10-22T06:30:00;11.57;;;4.10;;
68763;SDS011;55754;52.038;5.566;2022-10-22T06:32:25;12.80;;;4.60;;
68763;SDS011;55754;52.038;5.566;2022-10-22T06:34:51;14.80;;;4.50;;
68763;SDS011;55754;52.038;5.566;2022-10-22T06:37:19;12.82;;;3.72;;
68763;SDS011;55754;52.038;5.566;2022-10-22T06:39:45;15.37;;;4.00;;
68763;SDS011;55754;52.038;5.566;2022-10-22T06:42:10;15.30;;;3.72;;
68763;SDS011;55754;52.038;5.566;2022-10-22T06:44:36;8.93;;;3.20;;
68763;SDS011;55754;52.038;5.566;2022-10-22T06:47:02;10.93;;;3.60;;
68763;SDS011;55754;52.038;5.566;2022-10-22T06:49:27;11.00;;;3.40;;
68763;SDS011;55754;52.038;5.566;2022-10-22T06:51:53;13.53;;;4.03;;
68763;SDS011;55754;52.038;5.566;2022-10-22T06:54:20;11.90;;;3.30;;
68763;SDS011;55754;52.038;5.566;2022-10-22T06:56:51;12.85;;;3.38;;
68763;SDS011;55754;52.038;5.566;2022-10-22T06:59:17;12.93;;;3.43;;
68763;SDS011;55754;52.038;5.566;2022-10-22T07:01:42;8.70;;;3.20;;
68763;SDS011;55754;52.038;5.566;2022-10-22T07:04:09;13.60;;;3.60;;
68763;SDS011;55754;52.038;5.566;2022-10-22T07:06:34;13.37;;;3.17;;
68763;SDS011;55754;52.038;5.566;2022-10-22T07:09:00;15.40;;;3.38;;
68763;SDS011;55754;52.038;5.566;2022-10-22T07:11:27;13.77;;;3.43;;
68763;SDS011;55754;52.038;5.566;2022-10-22T07:13:54;11.00;;;3.30;;
68763;SDS011;55754;52.038;5.566;2022-10-22T07:16:22;10.90;;;3.10;;
68763;SDS011;55754;52.038;5.566;2022-10-22T07:18:48;10.25;;;3.42;;
68763;SDS011;55754;52.038;5.566;2022-10-22T07:21:17;12.53;;;3.07;;
68763;SDS011;55754;52.038;5.566;2022-10-22T07:23:44;11.32;;;3.20;;
68763;SDS011;55754;52.038;5.566;2022-10-22T07:26:10;10.27;;;3.42;;
68763;SDS011;55754;52.038;5.566;2022-10-22T07:28:38;13.05;;;3.17;;
68763;SDS011;55754;52.038;5.566;2022-10-22T07:31:05;11.95;;;3.00;;
68763;SDS011;55754;52.038;5.566;2022-10-22T07:33:32;9.20;;;2.93;;
68763;SDS011;55754;52.038;5.566;2022-10-22T07:35:58;12.85;;;3.33;;
68763;SDS011;55754;52.038;5.566;2022-10-22T07:38:25;13.75;;;2.85;;
68763;SDS011;55754;52.038;5.566;2022-10-22T07:40:51;13.87;;;3.17;;
68763;SDS011;55754;52.038;5.566;2022-10-22T07:43:16;10.82;;;2.90;;
68763;SDS011;55754;52.038;5.566;2022-10-22T07:45:42;12.70;;;2.80;;
68763;SDS011;55754;52.038;5.566;2022-10-22T07:48:07;10.13;;;2.60;;
68763;SDS011;55754;52.038;5.566;2022-10-22T07:50:33;10.30;;;2.55;;
68763;SDS011;55754;52.038;5.566;2022-10-22T07:52:58;15.33;;;2.93;;
68763;SDS011;55754;52.038;5.566;2022-10-22T07:55:24;11.07;;;2.70;;
68763;SDS011;55754;52.038;5.566;2022-10-22T07:57:50;14.20;;;2.90;;
68763;SDS011;55754;52.038;5.566;2022-10-22T08:00:15;10.53;;;2.90;;
68763;SDS011;55754;52.038;5.566;2022-10-22T08:02:41;10.75;;;2.70;;
68763;SDS011;55754;52.038;5.566;2022-10-22T08:05:07;11.97;;;3.00;;
68763;SDS011;55754;52.038;5.566;2022-10-22T08:07:33;9.55;;;2.80;;
68763;SDS011;55754;52.038;5.566;2022-10-22T08:09:58;12.10;;;3.20;;
68763;SDS011;55754;52.038;5.566;2022-10-22T08:12:24;11.80;;;2.63;;
68763;SDS011;55754;52.038;5.566;2022-10-22T08:14:49;12.80;;;2.60;;
68763;SDS011;55754;52.038;5.566;2022-10-22T08:17:15;10.77;;;2.50;;
68763;SDS011;55754;52.038;5.566;2022-10-22T08:19:40;11.30;;;2.42;;
68763;SDS011;55754;52.038;5.566;2022-10-22T08:22:06;11.70;;;2.57;;
68763;SDS011;55754;52.038;5.566;2022-10-22T08:24:32;11.53;;;2.50;;
68763;SDS011;55754;52.038;5.566;2022-10-22T08:26:57;9.07;;;2.80;;
68763;SDS011;55754;52.038;5.566;2022-10-22T08:29:23;11.80;;;3.03;;
68763;SDS011;55754;52.038;5.566;2022-10-22T08:31:50;9.77;;;2.43;;
68763;SDS011;55754;52.038;5.566;2022-10-22T08:34:17;9.05;;;2.50;;
68763;SDS011;55754;52.038;5.566;2022-10-22T08:36:45;12.50;;;2.58;;
68763;SDS011;55754;52.038;5.566;2022-10-22T08:39:11;11.73;;;2.50;;
68763;SDS011;55754;52.038;5.566;2022-10-22T08:41:41;10.03;;;2.40;;
68763;SDS011;55754;52.038;5.566;2022-10-22T08:47:08;11.95;;;2.83;;
68763;SDS011;55754;52.038;5.566;2022-10-22T08:50:04;13.55;;;2.80;;
68763;SDS011;55754;52.038;5.566;2022-10-22T08:52:33;11.37;;;2.30;;
68763;SDS011;55754;52.038;5.566;2022-10-22T08:55:00;11.07;;;2.60;;
68763;SDS011;55754;52.038;5.566;2022-10-22T08:57:36;11.35;;;2.50;;
68763;SDS011;55754;52.038;5.566;2022-10-22T09:00:25;10.23;;;2.50;;
68763;SDS011;55754;52.038;5.566;2022-10-22T09:06:10;10.83;;;2.63;;
68763;SDS011;55754;52.038;5.566;2022-10-22T09:08:39;11.25;;;2.13;;
68763;SDS011;55754;52.038;5.566;2022-10-22T09:11:25;9.70;;;2.50;;
68763;SDS011;55754;52.038;5.566;2022-10-22T09:13:54;9.38;;;2.13;;
68763;SDS011;55754;52.038;5.566;2022-10-22T09:19:04;16.03;;;2.50;;
68763;SDS011;55754;52.038;5.566;2022-10-22T09:21:59;10.13;;;2.30;;
68763;SDS011;55754;52.038;5.566;2022-10-22T09:24:46;10.15;;;2.33;;
68763;SDS011;55754;52.038;5.566;2022-10-22T09:27:17;12.33;;;2.40;;
68763;SDS011;55754;52.038;5.566;2022-10-22T09:29:46;11.60;;;2.30;;
68763;SDS011;55754;52.038;5.566;2022-10-22T09:32:13;12.30;;;2.25;;
68763;SDS011;55754;52.038;5.566;2022-10-22T09:34:39;14.13;;;2.30;;
68763;SDS011;55754;52.038;5.566;2022-10-22T09:37:08;7.93;;;2.10;;
68763;SDS011;55754;52.038;5.566;2022-10-22T09:39:36;9.23;;;2.20;;
68763;SDS011;55754;52.038;5.566;2022-10-22T09:42:04;16.65;;;2.30;;
68763;SDS011;55754;52.038;5.566;2022-10-22T09:44:34;11.77;;;2.30;;
68763;SDS011;55754;52.038;5.566;2022-10-22T09:47:26;9.35;;;2.00;;
68763;SDS011;55754;52.038;5.566;2022-10-22T09:52:58;13.17;;;2.03;;
68763;SDS011;55754;52.038;5.566;2022-10-22T09:55:28;7.93;;;2.00;;
68763;SDS011;55754;52.038;5.566;2022-10-22T09:57:54;13.02;;;2.10;;
68763;SDS011;55754;52.038;5.566;2022-10-22T10:00:23;10.47;;;2.10;;
68763;SDS011;55754;52.038;5.566;2022-10-22T10:02:53;11.13;;;2.30;;
68763;SDS011;55754;52.038;5.566;2022-10-22T10:05:24;12.45;;;2.20;;
68763;SDS011;55754;52.038;5.566;2022-10-22T10:07:52;10.88;;;1.80;;
68763;SDS011;55754;52.038;5.566;2022-10-22T10:10:39;13.87;;;2.13;;
68763;SDS011;55754;52.038;5.566;2022-10-22T10:16:20;11.90;;;2.53;;
68763;SDS011;55754;52.038;5.566;2022-10-22T10:19:02;11.38;;;2.30;;
68763;SDS011;55754;52.038;5.566;2022-10-22T10:21:59;10.57;;;2.20;;
68763;SDS011;55754;52.038;5.566;2022-10-22T10:27:46;12.95;;;2.45;;
68763;SDS011;55754;52.038;5.566;2022-10-22T10:30:20;15.80;;;2.58;;
68763;SDS011;55754;52.038;5.566;2022-10-22T10:32:52;12.60;;;2.72;;
68763;SDS011;55754;52.038;5.566;2022-10-22T10:35:39;10.87;;;2.40;;
68763;SDS011;55754;52.038;5.566;2022-10-22T10:44:15;10.65;;;2.40;;
68763;SDS011;55754;52.038;5.566;2022-10-22T10:49:47;9.33;;;2.27;;
68763;SDS011;55754;52.038;5.566;2022-10-22T10:52:23;10.98;;;2.42;;
68763;SDS011;55754;52.038;5.566;2022-10-22T10:58:10;11.13;;;2.30;;
68763;SDS011;55754;52.038;5.566;2022-10-22T11:00:55;10.98;;;2.42;;
68763;SDS011;55754;52.038;5.566;2022-10-22T11:03:32;12.60;;;2.30;;
68763;SDS011;55754;52.038;5.566;2022-10-22T11:06:18;10.32;;;2.40;;
68763;SDS011;55754;52.038;5.566;2022-10-22T11:11:25;10.57;;;2.30;;
68763;SDS011;55754;52.038;5.566;2022-10-22T11:22:18;7.80;;;1.60;;
68763;SDS011;55754;52.038;5.566;2022-10-22T11:27:51;16.50;;;1.88;;
68763;SDS011;55754;52.038;5.566;2022-10-22T11:30:21;9.97;;;1.50;;
68763;SDS011;55754;52.038;5.566;2022-10-22T11:32:58;15.38;;;1.60;;
68763;SDS011;55754;52.038;5.566;2022-10-22T11:38:49;11.52;;;1.77;;
68763;SDS011;55754;52.038;5.566;2022-10-22T11:41:16;14.80;;;2.05;;
68763;SDS011;55754;52.038;5.566;2022-10-22T11:43:56;12.77;;;1.80;;
68763;SDS011;55754;52.038;5.566;2022-10-22T11:46:57;9.73;;;1.98;;
68763;SDS011;55754;52.038;5.566;2022-10-22T11:49:43;14.30;;;1.98;;
68763;SDS011;55754;52.038;5.566;2022-10-22T11:54:56;11.20;;;1.70;;
68763;SDS011;55754;52.038;5.566;2022-10-22T11:57:34;10.17;;;1.53;;
68763;SDS011;55754;52.038;5.566;2022-10-22T12:00:05;9.18;;;1.40;;
68763;SDS011;55754;52.038;5.566;2022-10-22T12:02:42;11.90;;;1.95;;
68763;SDS011;55754;52.038;5.566;2022-10-22T12:10:25;12.13;;;1.80;;
68763;SDS011;55754;52.038;5.566;2022-10-22T12:13:10;11.60;;;1.50;;
68763;SDS011;55754;52.038;5.566;2022-10-22T12:15:45;10.23;;;1.90;;
68763;SDS011;55754;52.038;5.566;2022-10-22T12:18:13;10.65;;;1.60;;
68763;SDS011;55754;52.038;5.566;2022-10-22T12:20:39;10.25;;;1.85;;
68763;SDS011;55754;52.038;5.566;2022-10-22T12:23:04;13.40;;;1.63;;
68763;SDS011;55754;52.038;5.566;2022-10-22T12:25:33;11.60;;;1.95;;
68763;SDS011;55754;52.038;5.566;2022-10-22T12:28:00;12.15;;;1.60;;
68763;SDS011;55754;52.038;5.566;2022-10-22T12:30:28;11.50;;;1.70;;
68763;SDS011;55754;52.038;5.566;2022-10-22T12:33:03;11.63;;;2.30;;
68763;SDS011;55754;52.038;5.566;2022-10-22T12:35:33;12.82;;;2.00;;
68763;SDS011;55754;52.038;5.566;2022-10-22T12:38:12;13.55;;;2.15;;
68763;SDS011;55754;52.038;5.566;2022-10-22T12:40:40;13.20;;;1.88;;
68763;SDS011;55754;52.038;5.566;2022-10-22T12:43:15;9.80;;;1.93;;
68763;SDS011;55754;52.038;5.566;2022-10-22T12:45:43;14.18;;;2.00;;
68763;SDS011;55754;52.038;5.566;2022-10-22T12:48:24;12.32;;;2.08;;
68763;SDS011;55754;52.038;5.566;2022-10-22T12:50:54;17.48;;;1.92;;
68763;SDS011;55754;52.038;5.566;2022-10-22T12:53:29;11.75;;;2.10;;
68763;SDS011;55754;52.038;5.566;2022-10-22T12:56:02;12.03;;;1.70;;
68763;SDS011;55754;52.038;5.566;2022-10-22T12:59:14;15.77;;;2.50;;
68763;SDS011;55754;52.038;5.566;2022-10-22T13:01:21;11.00;;;2.10;;
68763;SDS011;55754;52.038;5.566;2022-10-22T13:03:50;11.23;;;2.35;;
68763;SDS011;55754;52.038;5.566;2022-10-22T13:06:27;13.43;;;2.33;;
68763;SDS011;55754;52.038;5.566;2022-10-22T13:12:01;13.15;;;2.30;;
68763;SDS011;55754;52.038;5.566;2022-10-22T13:17:05;16.03;;;2.50;;
68763;SDS011;55754;52.038;5.566;2022-10-22T13:19:45;12.18;;;2.22;;
68763;SDS011;55754;52.038;5.566;2022-10-22T13:22:51;13.02;;;2.20;;
68763;SDS011;55754;52.038;5.566;2022-10-22T13:27:42;12.05;;;2.58;;
68763;SDS011;55754;52.038;5.566;2022-10-22T13:30:29;13.67;;;2.50;;
68763;SDS011;55754;52.038;5.566;2022-10-22T13:33:00;12.43;;;2.50;;
68763;SDS011;55754;52.038;5.566;2022-10-22T13:35:27;15.00;;;2.70;;
68763;SDS011;55754;52.038;5.566;2022-10-22T13:37:56;17.63;;;2.65;;
68763;SDS011;55754;52.038;5.566;2022-10-22T13:40:21;13.03;;;2.50;;
68763;SDS011;55754;52.038;5.566;2022-10-22T13:42:47;12.03;;;2.60;;
68763;SDS011;55754;52.038;5.566;2022-10-22T13:45:12;15.20;;;2.88;;
68763;SDS011;55754;52.038;5.566;2022-10-22T13:47:38;17.05;;;2.70;;
68763;SDS011;55754;52.038;5.566;2022-10-22T13:50:14;12.53;;;2.83;;
68763;SDS011;55754;52.038;5.566;2022-10-22T13:52:48;15.32;;;2.88;;
68763;SDS011;55754;52.038;5.566;2022-10-22T13:57:46;13.10;;;2.60;;
68763;SDS011;55754;52.038;5.566;2022-10-22T14:00:14;14.47;;;3.03;;
68763;SDS011;55754;52.038;5.566;2022-10-22T14:02:45;13.07;;;2.90;;
68763;SDS011;55754;52.038;5.566;2022-10-22T14:05:12;14.55;;;2.58;;
68763;SDS011;55754;52.038;5.566;2022-10-22T14:07:40;11.13;;;2.30;;
68763;SDS011;55754;52.038;5.566;2022-10-22T14:10:12;11.67;;;2.40;;
68763;SDS011;55754;52.038;5.566;2022-10-22T14:12:41;14.98;;;2.58;;
68763;SDS011;55754;52.038;5.566;2022-10-22T14:15:08;13.60;;;2.50;;
68763;SDS011;55754;52.038;5.566;2022-10-22T14:17:37;13.10;;;2.30;;
68763;SDS011;55754;52.038;5.566;2022-10-22T14:20:04;15.85;;;2.78;;
68763;SDS011;55754;52.038;5.566;2022-10-22T14:22:30;14.30;;;2.55;;
68763;SDS011;55754;52.038;5.566;2022-10-22T14:24:56;15.40;;;2.35;;
68763;SDS011;55754;52.038;5.566;2022-10-22T14:27:21;13.33;;;2.30;;
68763;SDS011;55754;52.038;5.566;2022-10-22T14:29:47;14.40;;;2.43;;
68763;SDS011;55754;52.038;5.566;2022-10-22T14:32:16;13.32;;;2.50;;
68763;SDS011;55754;52.038;5.566;2022-10-22T14:34:44;16.35;;;2.72;;
68763;SDS011;55754;52.038;5.566;2022-10-22T14:37:14;11.40;;;2.10;;
68763;SDS011;55754;52.038;5.566;2022-10-22T14:39:42;12.95;;;2.17;;
68763;SDS011;55754;52.038;5.566;2022-10-22T14:42:10;14.73;;;2.15;;
68763;SDS011;55754;52.038;5.566;2022-10-22T14:44:36;12.98;;;2.47;;
68763;SDS011;55754;52.038;5.566;2022-10-22T14:47:02;11.90;;;2.10;;
68763;SDS011;55754;52.038;5.566;2022-10-22T14:49:27;14.15;;;2.03;;
68763;SDS011;55754;52.038;5.566;2022-10-22T14:51:53;12.93;;;2.30;;
68763;SDS011;55754;52.038;5.566;2022-10-22T14:54:18;14.97;;;2.50;;
68763;SDS011;55754;52.038;5.566;2022-10-22T14:56:44;15.68;;;2.60;;
68763;SDS011;55754;52.038;5.566;2022-10-22T14:59:09;14.67;;;2.90;;
68763;SDS011;55754;52.038;5.566;2022-10-22T15:01:35;20.03;;;5.60;;
68763;SDS011;55754;52.038;5.566;2022-10-22T15:04:02;14.13;;;3.67;;
68763;SDS011;55754;52.038;5.566;2022-10-22T15:06:28;15.82;;;3.00;;
68763;SDS011;55754;52.038;5.566;2022-10-22T15:08:53;11.67;;;2.80;;
68763;SDS011;55754;52.038;5.566;2022-10-22T15:11:19;10.93;;;3.03;;
68763;SDS011;55754;52.038;5.566;2022-10-22T15:13:46;14.65;;;2.78;;
68763;SDS011;55754;52.038;5.566;2022-10-22T15:16:12;11.57;;;2.30;;
68763;SDS011;55754;52.038;5.566;2022-10-22T15:18:39;15.40;;;3.77;;
68763;SDS011;55754;52.038;5.566;2022-10-22T15:21:06;18.77;;;5.57;;
68763;SDS011;55754;52.038;5.566;2022-10-22T15:23:36;22.75;;;8.40;;
68763;SDS011;55754;52.038;5.566;2022-10-22T15:26:05;16.58;;;2.90;;
68763;SDS011;55754;52.038;5.566;2022-10-22T15:28:31;15.63;;;2.77;;
68763;SDS011;55754;52.038;5.566;2022-10-22T15:30:58;30.55;;;15.90;;
68763;SDS011;55754;52.038;5.566;2022-10-22T15:33:25;18.77;;;3.80;;
68763;SDS011;55754;52.038;5.566;2022-10-22T15:35:52;13.50;;;3.22;;
68763;SDS011;55754;52.038;5.566;2022-10-22T15:38:18;14.45;;;3.38;;
68763;SDS011;55754;52.038;5.566;2022-10-22T15:40:44;13.68;;;2.83;;
68763;SDS011;55754;52.038;5.566;2022-10-22T15:43:13;17.42;;;3.00;;
68763;SDS011;55754;52.038;5.566;2022-10-22T15:45:41;14.37;;;3.43;;
68763;SDS011;55754;52.038;5.566;2022-10-22T15:48:07;12.75;;;2.80;;
68763;SDS011;55754;52.038;5.566;2022-10-22T15:50:36;15.30;;;3.10;;
68763;SDS011;55754;52.038;5.566;2022-10-22T15:53:02;15.75;;;2.80;;
68763;SDS011;55754;52.038;5.566;2022-10-22T15:55:28;17.27;;;2.57;;
68763;SDS011;55754;52.038;5.566;2022-10-22T15:57:53;13.60;;;3.17;;
68763;SDS011;55754;52.038;5.566;2022-10-22T16:00:19;25.70;;;9.30;;
68763;SDS011;55754;52.038;5.566;2022-10-22T16:02:46;42.42;;;14.90;;
68763;SDS011;55754;52.038;5.566;2022-10-22T16:05:12;22.60;;;7.10;;
68763;SDS011;55754;52.038;5.566;2022-10-22T16:07:37;24.75;;;11.40;;
68763;SDS011;55754;52.038;5.566;2022-10-22T16:10:03;33.33;;;13.30;;
68763;SDS011;55754;52.038;5.566;2022-10-22T16:12:31;25.45;;;8.85;;
68763;SDS011;55754;52.038;5.566;2022-10-22T16:14:57;18.00;;;6.37;;